Time;durP1;ratioP1;P1;durP2;ratioP2;P2;SDS_P1;SDS_P2;PMS_P1;PMS_P2;Temp;Humidity;BMP_temperature;BMP_pressure;BME280_temperature;BME280_humidity;BME280_pressure;Samples;Min_cycle;Max_cycle;Signal;HPM_P1;HPM_P2
2022/01/09 00:02:16;;;;;;;55.97;31.97;;;10.30;99.90;;;;;;10251240;29;20288;-91
2022/01/09 00:07:18;;;;;;;23.57;13.37;;;11.00;96.00;;;;;;10251129;28;20255;-91
2022/01/09 00:12:21;;;;;;;31.07;17.13;;;10.50;99.90;;;;;;10234174;28;20199;-91
2022/01/09 00:17:24;;;;;;;30.93;18.73;;;10.20;99.90;;;;;;10217583;28;20263;-91
2022/01/09 00:22:50;;;;;;;31.77;17.53;;;9.80;99.90;;;;;;10238827;28;20279;-90
2022/01/09 00:27:51;;;;;;;32.57;19.97;;;9.60;99.90;;;;;;10257397;28;20262;-91
2022/01/09 00:32:54;;;;;;;45.73;26.27;;;9.10;99.90;;;;;;10240459;28;20211;-91
2022/01/09 00:37:57;;;;;;;40.60;22.70;;;9.10;99.90;;;;;;10240382;28;20558;-91
2022/01/09 00:42:59;;;;;;;16.63;11.20;;;9.10;99.90;;;;;;10256144;28;20202;-91
2022/01/09 00:48:02;;;;;;;43.13;26.73;;;9.80;99.90;;;;;;10256769;28;20218;-90
2022/01/09 00:53:05;;;;;;;33.23;19.77;;;10.10;94.00;;;;;;10239479;28;20275;-91
2022/01/09 00:58:07;;;;;;;45.10;24.80;;;10.60;94.10;;;;;;10256667;28;20212;-91
2022/01/09 01:03:10;;;;;;;21.30;12.80;;;10.00;93.10;;;;;;10255268;28;20212;-92
2022/01/09 01:08:13;;;;;;;28.73;17.57;;;10.40;99.90;;;;;;10254581;29;20397;-91
2022/01/09 01:13:16;;;;;;;25.87;14.37;;;10.30;99.90;;;;;;10239127;28;20206;-91
2022/01/09 01:18:18;;;;;;;25.03;14.07;;;10.40;99.90;;;;;;10222659;28;20296;-91
2022/01/09 01:23:21;;;;;;;18.67;12.83;;;10.40;99.90;;;;;;10237612;28;20679;-92
2022/01/09 01:28:23;;;;;;;22.63;13.10;;;10.50;99.90;;;;;;10255599;28;20674;-92
2022/01/09 01:33:25;;;;;;;16.23;11.23;;;11.00;99.90;;;;;;10237802;29;20210;-92
2022/01/09 01:38:28;;;;;;;19.80;12.97;;;11.50;98.70;;;;;;10255201;29;20215;-92
2022/01/09 01:43:30;;;;;;;24.47;14.67;;;11.80;97.70;;;;;;10255145;28;20548;-91
2022/01/09 01:48:33;;;;;;;20.53;13.70;;;11.80;97.00;;;;;;10254741;28;20257;-92
2022/01/09 01:53:35;;;;;;;28.33;16.60;;;11.90;96.80;;;;;;10254704;28;20214;-92
2022/01/09 01:58:38;;;;;;;19.23;12.47;;;11.80;96.10;;;;;;10254585;28;20211;-91
2022/01/09 02:03:40;;;;;;;30.70;19.03;;;11.70;96.60;;;;;;10236943;29;20684;-91
2022/01/09 02:08:43;;;;;;;21.53;14.40;;;11.50;94.10;;;;;;10254074;28;20270;-91
2022/01/09 02:13:46;;;;;;;21.93;13.47;;;11.50;96.70;;;;;;10253864;28;20670;-91
2022/01/09 02:18:49;;;;;;;21.43;13.27;;;11.90;95.90;;;;;;10253702;28;20235;-91
2022/01/09 02:23:51;;;;;;;23.03;15.10;;;12.10;95.00;;;;;;10236062;28;20236;-92
2022/01/09 02:28:55;;;;;;;27.13;16.47;;;12.30;94.50;;;;;;10251974;28;20226;-91
2022/01/09 02:33:58;;;;;;;23.37;14.53;;;12.50;93.80;;;;;;10253242;29;20207;-91
2022/01/09 02:39:03;;;;;;;21.37;13.00;;;12.40;93.70;;;;;;10252997;28;20654;-91
2022/01/09 02:44:12;;;;;;;21.63;13.60;;;12.30;93.80;;;;;;10252159;28;20212;-91
2022/01/09 02:49:14;;;;;;;23.10;13.30;;;12.30;93.80;;;;;;10251373;28;20241;-91
2022/01/09 02:59:38;;;;;;;24.30;14.43;;;12.30;93.40;;;;;;10252501;28;20668;-91
2022/01/09 03:04:40;;;;;;;21.03;13.23;;;12.20;93.40;;;;;;10252480;28;20211;-92
2022/01/09 03:09:43;;;;;;;22.73;14.43;;;12.20;93.40;;;;;;10250219;29;20294;-91
2022/01/09 03:14:46;;;;;;;20.73;14.00;;;12.10;93.60;;;;;;10252120;28;20203;-92
2022/01/09 03:19:49;;;;;;;24.97;15.43;;;11.90;92.70;;;;;;10251950;29;20210;-91
2022/01/09 03:24:51;;;;;;;21.97;13.67;;;11.80;93.90;;;;;;10251726;29;20715;-92
2022/01/09 03:29:54;;;;;;;26.13;14.50;;;11.60;94.20;;;;;;10218719;28;20292;-92
2022/01/09 03:34:56;;;;;;;22.63;14.10;;;10.90;94.70;;;;;;10251837;28;20202;-92
2022/01/09 03:39:58;;;;;;;23.60;14.23;;;11.20;95.40;;;;;;10251603;28;20239;-92
2022/01/09 03:45:02;;;;;;;24.70;14.33;;;11.40;95.20;;;;;;10234071;29;20259;-92
2022/01/09 03:50:08;;;;;;;50.60;30.27;;;11.60;94.60;;;;;;10234419;29;20260;-91
2022/01/09 03:55:12;;;;;;;50.23;27.90;;;11.50;91.00;;;;;;10253909;28;20242;-92
2022/01/09 04:00:21;;;;;;;35.60;20.70;;;11.00;91.70;;;;;;10225512;29;20262;-92
2022/01/09 04:05:23;;;;;;;33.53;19.90;;;10.70;94.80;;;;;;10241458;29;20265;-92
2022/01/09 04:10:29;;;;;;;25.47;14.50;;;10.80;94.20;;;;;;10258769;29;20681;-93
2022/01/09 04:15:33;;;;;;;27.60;15.47;;;11.50;94.90;;;;;;10258580;28;20582;-92
2022/01/09 04:20:35;;;;;;;40.87;23.43;;;11.90;93.80;;;;;;10240737;29;20261;-93
2022/01/09 04:25:39;;;;;;;24.43;14.83;;;11.50;92.60;;;;;;10257982;28;20227;-93
2022/01/09 04:30:42;;;;;;;24.40;14.87;;;11.30;94.40;;;;;;10240514;29;20203;-92
2022/01/09 04:35:45;;;;;;;27.33;15.00;;;11.60;94.00;;;;;;10257900;28;20580;-93
2022/01/09 04:40:47;;;;;;;26.67;14.80;;;11.40;94.20;;;;;;10257924;28;20212;-93
2022/01/09 04:45:50;;;;;;;25.03;14.23;;;11.60;94.10;;;;;;10257622;29;20258;-93
2022/01/09 04:50:53;;;;;;;24.37;14.80;;;11.70;93.70;;;;;;10257693;28;20208;-93
2022/01/09 04:55:56;;;;;;;24.53;15.43;;;11.80;93.60;;;;;;10257437;28;20627;-93
2022/01/09 05:00:59;;;;;;;25.00;14.67;;;11.80;93.10;;;;;;10257252;28;20206;-93
2022/01/09 05:06:02;;;;;;;23.27;15.00;;;11.60;93.60;;;;;;10238038;28;20266;-93
2022/01/09 05:11:04;;;;;;;26.40;15.80;;;11.90;93.00;;;;;;10240194;29;20273;-93
2022/01/09 05:16:07;;;;;;;31.27;16.60;;;11.90;93.00;;;;;;10239067;29;20687;-93
2022/01/09 05:21:09;;;;;;;24.53;14.97;;;11.80;92.70;;;;;;10256708;28;20238;-93
2022/01/09 05:26:12;;;;;;;26.57;15.30;;;11.80;92.90;;;;;;10256092;28;20602;-93
2022/01/09 05:31:14;;;;;;;24.87;15.60;;;11.80;93.00;;;;;;10255117;29;20199;-93
2022/01/09 05:36:17;;;;;;;22.67;14.43;;;11.70;92.70;;;;;;10256156;28;20215;-93
2022/01/09 05:41:19;;;;;;;26.57;16.47;;;11.70;93.00;;;;;;10255020;28;20211;-93
2022/01/09 05:46:22;;;;;;;36.73;21.83;;;11.70;92.70;;;;;;10254037;28;20297;-93
2022/01/09 05:51:24;;;;;;;22.87;14.27;;;11.40;91.20;;;;;;10255370;29;20266;-93
2022/01/09 05:56:27;;;;;;;22.57;14.50;;;11.50;93.20;;;;;;10255680;28;20236;-93
2022/01/09 06:01:29;;;;;;;23.27;14.13;;;11.70;92.90;;;;;;10237869;29;20271;-93
2022/01/09 06:06:32;;;;;;;25.13;14.47;;;11.30;93.10;;;;;;10254786;28;20297;-93
2022/01/09 06:11:35;;;;;;;26.17;14.70;;;11.50;93.10;;;;;;10254970;29;20210;-93
2022/01/09 06:16:37;;;;;;;27.53;15.50;;;11.60;92.80;;;;;;10254382;28;20671;-93
2022/01/09 06:21:40;;;;;;;26.43;15.20;;;11.70;92.60;;;;;;10236865;28;20217;-93
2022/01/09 06:26:43;;;;;;;23.90;13.87;;;12.00;92.00;;;;;;10253720;28;20643;-93
2022/01/09 06:31:45;;;;;;;22.43;14.90;;;12.10;91.70;;;;;;10253837;28;20255;-93
2022/01/09 06:36:48;;;;;;;28.03;17.70;;;12.10;91.60;;;;;;10253764;28;20215;-93
2022/01/09 06:41:50;;;;;;;26.40;15.50;;;12.00;91.30;;;;;;10253517;29;20199;-93
2022/01/09 06:46:53;;;;;;;22.30;13.47;;;11.80;90.70;;;;;;10236230;29;20216;-93
2022/01/09 06:51:55;;;;;;;22.37;15.20;;;11.90;91.60;;;;;;10253094;28;20265;-93
2022/01/09 06:56:58;;;;;;;24.67;15.60;;;11.50;92.10;;;;;;10253201;29;20676;-93
2022/01/09 07:02:00;;;;;;;23.97;14.77;;;11.70;92.00;;;;;;10253063;28;20612;-92
2022/01/09 07:07:03;;;;;;;25.23;14.87;;;11.90;91.50;;;;;;10253010;28;20222;-92
2022/01/09 07:12:07;;;;;;;24.87;15.37;;;11.90;91.40;;;;;;10252968;29;20208;-93
2022/01/09 07:17:10;;;;;;;24.77;15.83;;;12.00;91.00;;;;;;10235607;28;20274;-93
2022/01/09 07:22:13;;;;;;;25.53;15.13;;;12.10;91.00;;;;;;10252368;29;20225;-93
2022/01/09 07:27:15;;;;;;;22.20;14.37;;;12.00;91.00;;;;;;10250676;28;20301;-93
2022/01/09 07:32:18;;;;;;;23.07;14.97;;;11.90;90.90;;;;;;10257080;28;20207;-93
2022/01/09 07:37:21;;;;;;;21.60;14.03;;;12.10;91.00;;;;;;10260361;28;20781;-92
2022/01/09 07:42:23;;;;;;;26.30;15.17;;;12.10;90.70;;;;;;10243543;29;20210;-93
2022/01/09 07:47:26;;;;;;;25.70;15.30;;;12.00;90.90;;;;;;10260216;29;20224;-93
2022/01/09 07:52:28;;;;;;;30.93;17.93;;;11.80;90.50;;;;;;10259986;28;20232;-93
2022/01/09 07:57:31;;;;;;;29.10;18.53;;;11.50;87.50;;;;;;10259799;29;20212;-92
2022/01/09 08:02:34;;;;;;;22.63;14.37;;;11.80;90.80;;;;;;10241953;28;20215;-93
2022/01/09 08:07:37;;;;;;;25.13;14.80;;;11.30;91.10;;;;;;10258807;29;20651;-93
2022/01/09 08:12:40;;;;;;;20.07;13.87;;;11.90;91.00;;;;;;10259007;29;20269;-93
2022/01/09 08:17:45;;;;;;;20.40;13.97;;;12.10;90.40;;;;;;10258621;28;20580;-93
2022/01/09 08:22:48;;;;;;;23.63;13.33;;;12.00;90.50;;;;;;10241133;29;20239;-93
2022/01/09 08:27:51;;;;;;;19.23;13.37;;;12.20;90.20;;;;;;10258378;28;20653;-91
2022/01/09 08:32:53;;;;;;;21.97;14.03;;;12.20;89.50;;;;;;10258315;28;20251;-92
2022/01/09 08:37:56;;;;;;;22.40;14.23;;;12.30;89.60;;;;;;10257933;28;20257;-93
2022/01/09 08:42:58;;;;;;;23.77;13.77;;;12.50;89.10;;;;;;10258058;28;20208;-92
2022/01/09 08:48:01;;;;;;;23.80;15.20;;;12.40;89.00;;;;;;10240601;28;20596;-92
2022/01/09 08:53:04;;;;;;;24.40;14.23;;;12.10;89.20;;;;;;10257564;28;20203;-92
2022/01/09 08:58:06;;;;;;;21.13;13.37;;;11.70;88.80;;;;;;10224099;28;20272;-92
2022/01/09 09:03:09;;;;;;;22.53;14.83;;;12.00;90.20;;;;;;10256968;28;20238;-93
2022/01/09 09:08:12;;;;;;;40.17;24.47;;;12.30;80.30;;;;;;10256658;29;20228;-93
2022/01/09 09:13:14;;;;;;;24.17;14.70;;;12.10;78.40;;;;;;10256470;28;20197;-92
2022/01/09 09:18:17;;;;;;;47.27;26.27;;;12.30;88.10;;;;;;10238263;29;20218;-92
2022/01/09 09:23:20;;;;;;;23.57;15.77;;;12.00;83.10;;;;;;10238971;29;20282;-92
2022/01/09 09:28:22;;;;;;;23.00;14.50;;;12.00;88.70;;;;;;10238383;29;20227;-92
2022/01/09 09:33:25;;;;;;;39.07;26.23;;;12.30;88.50;;;;;;10239065;28;20202;-93
2022/01/09 09:38:29;;;;;;;24.23;15.27;;;11.70;78.80;;;;;;10255925;29;20270;-92
2022/01/09 09:43:31;;;;;;;24.73;14.90;;;12.60;87.60;;;;;;10255408;28;20204;-93
2022/01/09 09:48:34;;;;;;;20.90;13.40;;;12.70;85.50;;;;;;10238097;29;20236;-92
2022/01/09 09:53:36;;;;;;;21.37;14.57;;;12.60;85.10;;;;;;10236800;28;20648;-92
2022/01/09 09:58:42;;;;;;;24.37;14.80;;;12.60;85.70;;;;;;10254629;29;20279;-92
2022/01/09 10:04:00;;;;;;;25.50;14.37;;;12.20;85.60;;;;;;10253313;28;20203;-92
2022/01/09 10:09:13;;;;;;;25.37;15.30;;;12.70;85.90;;;;;;10221088;28;20718;-92
2022/01/09 10:14:25;;;;;;;25.93;16.23;;;12.80;79.30;;;;;;10237367;29;20201;-91
2022/01/09 10:19:47;;;;;;;39.70;23.87;;;12.70;85.30;;;;;;10253963;28;20211;-92
2022/01/09 10:24:50;;;;;;;25.83;16.20;;;12.40;84.10;;;;;;10253432;28;20643;-92
2022/01/09 10:29:54;;;;;;;20.93;13.97;;;12.30;86.00;;;;;;10236895;28;20269;-92
2022/01/09 10:35:15;;;;;;;40.73;24.60;;;12.30;87.00;;;;;;10253487;28;20207;-91
2022/01/09 10:40:28;;;;;;;20.87;14.30;;;12.30;83.70;;;;;;10253262;29;20561;-92
2022/01/09 10:45:31;;;;;;;24.43;14.70;;;12.10;85.80;;;;;;10253186;28;20744;-92
2022/01/09 10:50:38;;;;;;;21.73;14.27;;;12.30;87.00;;;;;;10235490;29;20228;-93
2022/01/09 10:55:40;;;;;;;28.83;18.10;;;12.50;86.00;;;;;;10252697;29;20214;-90
2022/01/09 11:00:43;;;;;;;21.43;14.57;;;12.60;85.00;;;;;;10252903;29;20742;-92
2022/01/09 11:05:46;;;;;;;26.50;18.73;;;12.30;85.40;;;;;;10251879;28;20211;-91
2022/01/09 11:10:49;;;;;;;24.03;14.70;;;12.00;85.30;;;;;;10235424;28;20726;-91
2022/01/09 11:21:13;;;;;;;24.73;15.70;;;11.90;85.60;;;;;;10234880;29;20214;-93
2022/01/09 11:26:16;;;;;;;39.43;22.60;;;12.20;87.30;;;;;;10251641;29;20231;-93
2022/01/09 11:31:42;;;;;;;25.30;15.30;;;11.50;86.40;;;;;;10234600;29;20234;-92
2022/01/09 11:37:00;;;;;;;25.07;16.60;;;12.10;80.30;;;;;;10234334;29;20243;-91
2022/01/09 11:42:08;;;;;;;24.77;15.47;;;12.10;86.90;;;;;;10251961;28;20215;-92
2022/01/09 11:47:11;;;;;;;99.97;49.60;;;12.30;86.10;;;;;;10251534;28;20215;-92
2022/01/09 11:52:13;;;;;;;24.80;16.47;;;12.40;75.50;;;;;;10251365;28;20207;-91
2022/01/09 11:57:45;;;;;;;58.97;30.63;;;12.60;85.30;;;;;;10251572;29;20204;-91
2022/01/09 12:02:48;;;;;;;51.07;29.10;;;12.50;81.30;;;;;;10233803;29;20266;-91
2022/01/09 12:07:54;;;;;;;32.57;18.43;;;12.30;83.70;;;;;;10251083;28;20226;-90
2022/01/09 12:12:57;;;;;;;41.13;24.60;;;12.60;85.00;;;;;;10251266;28;20207;-91
2022/01/09 12:18:03;;;;;;;56.87;36.43;;;12.50;82.10;;;;;;10255567;28;20211;-92
2022/01/09 12:23:08;;;;;;;31.63;18.73;;;11.60;68.50;;;;;;10257990;28;20712;-91
2022/01/09 12:28:17;;;;;;;25.30;16.73;;;12.10;86.60;;;;;;10257904;28;20777;-91
2022/01/09 12:33:45;;;;;;;29.30;16.87;;;12.20;86.10;;;;;;10257828;28;20210;-91
2022/01/09 12:38:55;;;;;;;30.30;17.87;;;11.70;87.60;;;;;;10257441;28;20206;-91
2022/01/09 12:44:05;;;;;;;32.07;19.10;;;11.80;86.70;;;;;;10234908;28;20638;-91
2022/01/09 12:49:12;;;;;;;24.83;16.80;;;11.20;86.90;;;;;;10256494;28;20230;-91
2022/01/09 12:54:15;;;;;;;27.10;16.60;;;11.70;88.90;;;;;;10239274;29;20213;-92
2022/01/09 12:59:20;;;;;;;31.90;19.63;;;11.80;87.90;;;;;;10256829;29;20239;-91
2022/01/09 13:04:23;;;;;;;55.80;31.43;;;11.80;87.60;;;;;;10256620;28;20211;-91
2022/01/09 13:09:28;;;;;;;29.70;17.57;;;10.90;80.00;;;;;;10256384;28;20235;-91
2022/01/09 13:14:31;;;;;;;38.47;21.90;;;11.40;90.20;;;;;;10256266;28;20553;-91
2022/01/09 13:19:34;;;;;;;27.23;17.93;;;11.30;89.00;;;;;;10238612;28;20749;-91
2022/01/09 13:24:44;;;;;;;38.33;22.53;;;11.00;90.30;;;;;;10238948;28;20236;-90
2022/01/09 13:29:56;;;;;;;42.10;25.23;;;11.50;89.20;;;;;;10253073;28;20230;-90
2022/01/09 13:34:59;;;;;;;33.60;19.83;;;11.80;87.30;;;;;;10238448;28;20210;-91
2022/01/09 13:40:03;;;;;;;27.53;17.17;;;11.90;89.00;;;;;;10255349;29;20628;-91
2022/01/09 13:45:11;;;;;;;27.13;17.67;;;11.80;88.60;;;;;;10255165;28;20211;-91
2022/01/09 13:50:17;;;;;;;26.67;16.30;;;11.70;88.60;;;;;;10237269;28;20231;-91
2022/01/09 13:55:26;;;;;;;30.80;18.67;;;11.80;88.20;;;;;;10254851;28;20243;-91
2022/01/09 14:00:31;;;;;;;27.67;16.70;;;11.70;88.30;;;;;;10221407;28;20223;-91
2022/01/09 14:05:44;;;;;;;27.63;16.73;;;11.50;89.50;;;;;;10237435;29;20263;-90
2022/01/09 14:10:50;;;;;;;25.33;16.23;;;11.50;89.50;;;;;;10236270;29;20654;-90
2022/01/09 14:16:07;;;;;;;28.07;16.63;;;11.00;90.30;;;;;;10236980;28;20252;-91
2022/01/09 14:21:17;;;;;;;26.07;16.17;;;10.90;90.30;;;;;;10236118;28;20212;-91
2022/01/09 14:26:22;;;;;;;24.93;15.53;;;10.90;90.90;;;;;;10253538;28;20283;-90
2022/01/09 14:31:25;;;;;;;27.40;17.97;;;11.10;90.80;;;;;;10253365;28;20226;-90
2022/01/09 14:36:30;;;;;;;23.67;16.17;;;11.10;90.60;;;;;;10253352;28;20575;-92
2022/01/09 14:41:37;;;;;;;32.57;19.87;;;11.20;90.70;;;;;;10252761;28;20207;-91
2022/01/09 14:46:39;;;;;;;31.93;19.13;;;11.20;90.50;;;;;;10235014;29;20584;-91
2022/01/09 14:51:42;;;;;;;25.87;15.57;;;11.00;90.60;;;;;;10219416;29;20238;-91
2022/01/09 14:56:44;;;;;;;24.83;16.70;;;11.00;91.10;;;;;;10252758;29;20203;-92
2022/01/09 15:01:47;;;;;;;25.97;16.30;;;11.00;91.00;;;;;;10252562;28;20234;-92
2022/01/09 15:06:49;;;;;;;23.87;15.83;;;11.00;90.90;;;;;;10235533;29;20266;-91
2022/01/09 15:11:52;;;;;;;26.37;16.27;;;11.10;90.90;;;;;;10235434;28;20226;-92
2022/01/09 15:16:54;;;;;;;29.67;17.03;;;11.30;90.70;;;;;;10252311;28;20211;-92
2022/01/09 15:21:57;;;;;;;31.53;17.30;;;11.30;90.50;;;;;;10252376;28;20239;-93
2022/01/09 15:26:59;;;;;;;24.23;15.70;;;11.40;90.00;;;;;;10251062;28;20215;-91
2022/01/09 15:32:03;;;;;;;26.77;15.97;;;11.60;90.20;;;;;;10250416;28;20231;-90
2022/01/09 15:37:05;;;;;;;26.17;16.70;;;11.60;90.00;;;;;;10250155;28;20210;-90
2022/01/09 15:42:08;;;;;;;26.77;16.63;;;11.40;90.10;;;;;;10251442;28;20210;-94
2022/01/09 16:09:15;;;;;;;56.53;32.17;;;10.30;72.30;;;;;;10014869;23;1096644;-92
2022/01/09 16:14:17;;;;;;;59.40;30.63;;;9.90;73.00;;;;;;10216999;29;20258;-93
2022/01/09 16:19:21;;;;;;;52.00;28.37;;;9.60;73.80;;;;;;10231977;29;20588;-92
2022/01/09 16:24:25;;;;;;;49.67;26.30;;;9.90;76.10;;;;;;10232807;28;20219;-93
2022/01/09 16:29:28;;;;;;;50.80;29.43;;;9.70;77.10;;;;;;10210873;29;20708;-93
2022/01/09 16:34:30;;;;;;;54.03;28.20;;;9.90;77.10;;;;;;10216816;29;20216;-95
2022/01/09 16:39:33;;;;;;;49.37;27.77;;;9.60;77.90;;;;;;10243811;29;20215;-94
2022/01/09 16:44:35;;;;;;;47.60;24.00;;;9.90;78.50;;;;;;10252968;28;20238;-91
2022/01/09 16:49:38;;;;;;;50.97;27.53;;;10.20;83.20;;;;;;10235999;29;20639;-94
2022/01/09 16:54:40;;;;;;;54.50;29.97;;;11.20;71.60;;;;;;10238816;28;20203;-95
2022/01/09 16:59:43;;;;;;;59.33;32.23;;;10.80;71.00;;;;;;10213457;29;20239;-92
2022/01/09 17:04:47;;;;;;;56.13;29.03;;;9.90;69.00;;;;;;10221126;29;20273;-92
2022/01/09 17:09:49;;;;;;;49.90;27.23;;;9.30;74.60;;;;;;10251632;28;20270;-92
2022/01/09 17:14:52;;;;;;;48.80;26.87;;;9.40;76.30;;;;;;10252165;28;20202;-93
2022/01/09 17:19:56;;;;;;;55.17;29.90;;;9.10;77.50;;;;;;10252437;28;20273;-94
2022/01/09 17:24:59;;;;;;;48.60;25.67;;;9.20;76.30;;;;;;10227682;28;20287;-93
2022/01/09 17:30:04;;;;;;;47.07;25.93;;;9.70;77.90;;;;;;10213292;29;20259;-93
2022/01/09 17:35:09;;;;;;;50.43;28.13;;;9.90;77.40;;;;;;10228797;28;20239;-93
2022/01/09 17:40:11;;;;;;;49.17;26.73;;;9.80;78.40;;;;;;10266522;28;20245;-93
2022/01/09 17:45:14;;;;;;;57.60;29.37;;;10.10;77.90;;;;;;10250332;28;20238;-93
2022/01/09 17:50:20;;;;;;;47.50;28.03;;;10.20;77.40;;;;;;10253315;28;20242;-92
2022/01/09 17:55:23;;;;;;;41.93;23.37;;;10.20;77.40;;;;;;10252280;29;20320;-93
2022/01/09 18:00:25;;;;;;;42.87;23.87;;;9.90;79.50;;;;;;10249363;28;20283;-94
2022/01/09 18:05:28;;;;;;;51.47;26.67;;;10.30;79.60;;;;;;10250920;29;20255;-93
2022/01/09 18:10:31;;;;;;;67.37;35.97;;;10.20;78.80;;;;;;10234576;29;20765;-92
2022/01/09 18:15:33;;;;;;;61.73;31.37;;;10.00;74.90;;;;;;10233165;29;20351;-92
2022/01/09 18:20:37;;;;;;;52.53;26.00;;;9.50;81.70;;;;;;10248865;29;20690;-93
2022/01/09 18:25:39;;;;;;;55.57;27.83;;;8.70;84.30;;;;;;10216920;29;20214;-91
2022/01/09 18:30:42;;;;;;;55.00;25.20;;;4.20;93.90;;;;;;10248688;28;20266;-92
2022/01/09 18:35:44;;;;;;;84.00;37.43;;;6.30;97.40;;;;;;10230271;28;20352;-91
2022/01/09 18:40:48;;;;;;;56.80;27.90;;;7.40;92.50;;;;;;10215052;29;20648;-90
2022/01/09 18:45:51;;;;;;;39.33;21.80;;;8.60;92.00;;;;;;10207389;29;20312;-91
2022/01/09 18:50:56;;;;;;;40.90;21.63;;;9.30;91.50;;;;;;10196849;29;20312;-91
2022/01/09 18:55:59;;;;;;;80.70;42.27;;;9.60;90.40;;;;;;10245699;28;20687;-91
2022/01/09 19:01:01;;;;;;;48.07;25.23;;;5.40;67.80;;;;;;10262003;28;20269;-96
2022/01/09 19:06:10;;;;;;;82.67;40.80;;;5.80;99.90;;;;;;10226263;23;20235;-90
2022/01/09 19:11:17;;;;;;;82.93;42.90;;;4.60;77.50;;;;;;10207090;29;20262;-92
2022/01/09 19:16:20;;;;;;;74.50;40.50;;;3.80;91.10;;;;;;10206791;29;20652;-88
2022/01/09 19:21:24;;;;;;;79.30;40.63;;;4.50;99.00;;;;;;10207411;29;20214;-89
2022/01/09 19:26:28;;;;;;;62.13;31.37;;;5.40;93.00;;;;;;10229503;28;20275;-91
2022/01/09 19:31:32;;;;;;;61.50;31.57;;;5.90;99.90;;;;;;10215756;29;20325;-86
2022/01/09 19:36:34;;;;;;;66.90;35.77;;;6.20;99.90;;;;;;10213929;28;20275;-88
2022/01/09 19:41:37;;;;;;;55.50;30.93;;;6.90;94.20;;;;;;10215110;29;20250;-88
2022/01/09 19:46:40;;;;;;;56.67;27.70;;;8.20;95.90;;;;;;10203149;29;20294;-86
2022/01/09 19:51:42;;;;;;;52.70;28.77;;;8.20;95.10;;;;;;10206459;29;20271;-88
2022/01/09 19:56:45;;;;;;;58.63;31.50;;;8.20;93.20;;;;;;10205121;29;20215;-87
2022/01/09 20:01:47;;;;;;;58.17;31.70;;;7.50;94.20;;;;;;10207438;29;20298;-87
2022/01/09 20:06:50;;;;;;;57.63;28.30;;;7.70;95.40;;;;;;10194885;28;20323;-89
2022/01/09 20:11:55;;;;;;;72.03;36.27;;;7.30;95.30;;;;;;10202864;29;20318;-87
2022/01/09 20:16:58;;;;;;;65.73;33.20;;;6.40;93.00;;;;;;10211099;29;20910;-87
2022/01/09 20:22:00;;;;;;;57.03;30.47;;;5.70;98.10;;;;;;10196889;29;20227;-89
2022/01/09 20:27:04;;;;;;;58.63;32.80;;;5.50;99.90;;;;;;10217379;28;20636;-88
2022/01/09 20:32:07;;;;;;;45.07;23.77;;;7.30;99.60;;;;;;10210432;29;20330;-89
2022/01/09 20:37:10;;;;;;;46.10;24.20;;;8.70;95.80;;;;;;10194763;29;20246;-90
2022/01/09 20:42:12;;;;;;;72.97;36.83;;;9.40;93.60;;;;;;10209781;29;20628;-86
2022/01/09 20:47:16;;;;;;;52.37;25.50;;;9.10;87.90;;;;;;10242682;28;20206;-86
2022/01/09 20:52:18;;;;;;;60.33;29.93;;;8.50;92.30;;;;;;10203486;29;20314;-85
2022/01/09 20:57:21;;;;;;;70.77;34.17;;;9.30;88.50;;;;;;10231253;29;20243;-87
2022/01/09 21:02:23;;;;;;;81.50;42.20;;;8.50;91.80;;;;;;10202119;29;20299;-88
2022/01/09 21:07:26;;;;;;;62.33;32.33;;;6.90;81.80;;;;;;10203451;29;20291;-87
2022/01/09 21:12:32;;;;;;;71.23;39.03;;;6.20;96.70;;;;;;10204216;29;20255;-83
2022/01/09 21:17:34;;;;;;;56.33;30.23;;;5.60;94.20;;;;;;10186400;29;20307;-83
2022/01/09 21:22:41;;;;;;;69.53;38.27;;;6.20;99.00;;;;;;10179491;29;20306;-85
2022/01/09 21:27:44;;;;;;;52.53;28.57;;;6.40;90.00;;;;;;10202592;29;20250;-88
2022/01/09 21:32:46;;;;;;;57.77;29.13;;;6.50;99.90;;;;;;10210557;29;20676;-82
2022/01/09 21:37:51;;;;;;;64.53;33.23;;;6.90;98.20;;;;;;10208877;29;20298;-82
2022/01/09 21:42:54;;;;;;;51.63;28.17;;;6.90;96.90;;;;;;10209933;29;20239;-82
2022/01/09 21:47:57;;;;;;;49.47;25.03;;;6.90;99.90;;;;;;10204985;29;20777;-82
2022/01/09 21:53:00;;;;;;;46.50;24.40;;;7.30;99.30;;;;;;10207948;29;20274;-83
2022/01/09 21:58:02;;;;;;;50.93;27.23;;;7.40;97.40;;;;;;10215544;29;20306;-82
2022/01/09 22:03:05;;;;;;;48.23;26.70;;;7.30;97.70;;;;;;10208144;29;20578;-83
2022/01/09 22:08:08;;;;;;;49.50;23.70;;;7.60;96.80;;;;;;10207815;29;20278;-82
2022/01/09 22:13:11;;;;;;;61.50;30.63;;;7.80;97.90;;;;;;10205533;29;20261;-82
2022/01/09 22:18:13;;;;;;;58.83;31.23;;;7.20;94.30;;;;;;10207582;29;20647;-82
2022/01/09 22:23:16;;;;;;;64.00;36.50;;;6.80;98.20;;;;;;10207438;29;20771;-83
2022/01/09 22:28:18;;;;;;;51.60;27.43;;;6.00;96.10;;;;;;10209089;29;20747;-82
2022/01/09 22:33:21;;;;;;;58.00;33.03;;;6.00;99.90;;;;;;10206135;29;20266;-82
2022/01/09 22:38:23;;;;;;;44.87;25.00;;;6.50;99.40;;;;;;10204277;29;20294;-82
2022/01/09 22:43:27;;;;;;;48.47;24.80;;;7.20;99.90;;;;;;10208016;29;20243;-83
2022/01/09 22:48:30;;;;;;;43.83;23.93;;;7.10;99.30;;;;;;10202683;29;20243;-83
2022/01/09 22:53:32;;;;;;;46.97;25.53;;;7.40;99.20;;;;;;10202297;29;20258;-83
2022/01/09 22:58:35;;;;;;;45.00;23.13;;;7.50;98.10;;;;;;10206707;29;20239;-83
2022/01/09 23:03:40;;;;;;;54.83;27.17;;;8.20;97.90;;;;;;10203909;29;20262;-83
2022/01/09 23:08:45;;;;;;;63.63;33.03;;;8.20;94.50;;;;;;10203220;29;20668;-83
2022/01/09 23:13:47;;;;;;;61.37;33.37;;;6.50;96.40;;;;;;10192185;29;20298;-87
2022/01/09 23:18:50;;;;;;;35.83;20.63;;;6.90;98.30;;;;;;10207675;29;20246;-86
2022/01/09 23:23:53;;;;;;;61.37;32.17;;;6.80;99.90;;;;;;10206953;29;20336;-89
2022/01/09 23:28:55;;;;;;;38.50;21.77;;;6.90;97.40;;;;;;10183989;29;20639;-89
2022/01/09 23:33:58;;;;;;;61.23;31.30;;;7.40;99.90;;;;;;10208252;29;20332;-89
2022/01/09 23:39:04;;;;;;;42.10;22.47;;;7.60;96.50;;;;;;10207987;29;20258;-88
2022/01/09 23:44:06;;;;;;;41.97;25.00;;;8.10;98.80;;;;;;10182681;29;20243;-88
2022/01/09 23:54:35;;;;;;;53.70;29.07;;;7.90;96.50;;;;;;10206014;29;20250;-89
2022/01/09 23:59:38;;;;;;;57.13;29.77;;;7.80;94.90;;;;;;10207409;29;20267;-89
